createdAt,value
2018-12-21T00:01:15.950Z,-2.03
2018-12-21T00:03:45.525Z,-1.96
2018-12-21T00:06:15.019Z,-2.05
2018-12-21T00:08:44.679Z,-1.92
2018-12-21T00:11:14.385Z,-2.07
2018-12-21T00:13:44.458Z,-1.97
2018-12-21T00:16:14.327Z,-1.86
2018-12-21T00:18:43.858Z,-1.90
2018-12-21T00:21:21.654Z,-1.90
2018-12-21T00:23:45.209Z,-1.87
2018-12-21T00:26:14.806Z,-1.74
2018-12-21T00:28:44.550Z,-1.73
2018-12-21T00:31:19.322Z,-1.88
2018-12-21T00:33:53.706Z,-1.83
2018-12-21T00:36:28.505Z,-1.88
2018-12-21T00:39:03.050Z,-1.97
2018-12-21T00:41:31.578Z,-1.88
2018-12-21T00:44:05.438Z,-1.91
2018-12-21T00:46:39.241Z,-1.95
2018-12-21T00:49:08.849Z,-1.93
2018-12-21T00:51:39.516Z,-1.95
2018-12-21T00:54:09.040Z,-1.99
2018-12-21T00:56:38.775Z,-2.12
2018-12-21T00:59:08.351Z,-1.92
2018-12-21T01:01:37.935Z,-2.04
2018-12-21T01:04:07.516Z,-2.06
2018-12-21T01:06:37.144Z,-2.10
2018-12-21T01:09:07.531Z,-2.08
2018-12-21T01:11:37.458Z,-1.99
2018-12-21T01:14:06.963Z,-1.99
2018-12-21T01:16:36.611Z,-1.97
2018-12-21T01:19:06.251Z,-1.96
2018-12-21T01:21:38.861Z,-1.98
2018-12-21T01:24:07.599Z,-1.94
2018-12-21T01:26:37.223Z,-1.94
2018-12-21T01:29:06.893Z,-1.92
2018-12-21T01:31:36.484Z,-1.93
2018-12-21T01:34:05.946Z,-1.93
2018-12-21T01:36:35.676Z,-1.86
2018-12-21T01:39:07.620Z,-1.81
2018-12-21T01:41:37.450Z,-1.80
2018-12-21T01:44:07.035Z,-1.83
2018-12-21T01:46:36.478Z,-1.71
2018-12-21T01:49:05.987Z,-1.72
2018-12-21T01:51:35.601Z,-1.94
2018-12-21T01:54:05.197Z,-1.93
2018-12-21T01:56:34.797Z,-1.92
2018-12-21T01:59:04.256Z,-1.88
2018-12-21T02:01:33.983Z,-1.87
2018-12-21T02:04:03.572Z,-2.01
2018-12-21T02:06:33.161Z,-1.97
2018-12-21T02:09:02.893Z,-1.94
2018-12-21T02:11:32.361Z,-1.97
2018-12-21T02:14:02.007Z,-1.91
2018-12-21T02:16:31.743Z,-1.85
2018-12-21T02:19:01.304Z,-1.83
2018-12-21T02:21:31.061Z,-1.82
2018-12-21T02:24:00.792Z,-1.84
2018-12-21T02:26:30.278Z,-1.88
2018-12-21T02:28:59.824Z,-1.82
2018-12-21T02:31:29.424Z,-1.85
2018-12-21T02:34:00.004Z,-1.78
2018-12-21T02:36:29.719Z,-1.76
2018-12-21T02:38:59.350Z,-1.69
2018-12-21T02:41:28.839Z,-1.73
2018-12-21T02:43:58.430Z,-1.70
2018-12-21T02:46:28.715Z,-1.92
2018-12-21T02:48:58.179Z,-1.65
2018-12-21T02:51:27.664Z,-1.60
2018-12-21T02:53:57.275Z,-1.39
2018-12-21T02:56:26.894Z,-1.43
2018-12-21T02:58:56.572Z,-1.52
2018-12-21T03:01:26.089Z,-1.30
2018-12-21T03:03:56.446Z,-1.29
2018-12-21T03:06:26.050Z,-1.22
2018-12-21T03:08:56.830Z,-1.08
2018-12-21T03:11:26.363Z,-1.09
2018-12-21T03:13:55.895Z,-0.97
2018-12-21T03:16:25.495Z,-1.01
2018-12-21T03:18:55.057Z,-0.96
2018-12-21T03:21:24.609Z,-0.89
2018-12-21T03:23:54.209Z,-0.74
2018-12-21T03:26:23.804Z,-0.74
2018-12-21T03:28:53.584Z,-0.72
2018-12-21T03:31:23.161Z,-0.94
2018-12-21T03:33:52.753Z,-0.60
2018-12-21T03:36:22.251Z,-0.70
2018-12-21T03:38:51.719Z,-0.62
2018-12-21T03:41:21.219Z,-0.64
2018-12-21T03:43:50.864Z,-0.62
2018-12-21T03:46:20.421Z,-0.60
2018-12-21T03:48:50.073Z,-0.55
2018-12-21T03:51:19.642Z,-0.50
2018-12-21T03:53:49.378Z,-0.45
2018-12-21T03:56:18.786Z,-0.39
2018-12-21T03:58:48.327Z,-0.56
2018-12-21T04:01:17.923Z,-0.55
2018-12-21T04:03:47.688Z,-0.47
2018-12-21T04:06:17.388Z,-0.59
2018-12-21T04:08:46.870Z,-0.65
2018-12-21T04:11:16.441Z,-0.67
2018-12-21T04:13:46.483Z,-0.64
2018-12-21T04:16:16.160Z,-0.58
2018-12-21T04:18:45.826Z,-0.48
2018-12-21T04:21:15.463Z,-0.53
2018-12-21T04:23:45.144Z,-0.48
2018-12-21T04:26:14.746Z,-0.31
2018-12-21T04:28:44.244Z,-0.32
2018-12-21T04:31:13.629Z,-0.23
2018-12-21T04:33:43.239Z,-0.22
2018-12-21T04:36:12.813Z,-0.12
2018-12-21T04:38:42.493Z,-0.05
2018-12-21T04:41:12.101Z,-0.05
2018-12-21T04:43:41.731Z,-0.03
2018-12-21T04:46:11.413Z,-0.05
2018-12-21T04:48:40.897Z,0.07
2018-12-21T04:51:10.442Z,0.00
2018-12-21T04:53:39.935Z,0.07
2018-12-21T04:56:09.424Z,-0.01
2018-12-21T04:58:39.510Z,-0.03
2018-12-21T05:01:09.258Z,-0.23
2018-12-21T05:03:38.897Z,-0.19
2018-12-21T05:06:08.459Z,-0.12
2018-12-21T05:08:38.128Z,-0.20
2018-12-21T05:11:07.719Z,-0.25
2018-12-21T05:13:37.402Z,-0.19
2018-12-21T05:16:06.897Z,-0.25
2018-12-21T05:18:36.610Z,-0.22
2018-12-21T05:21:06.138Z,-0.24
2018-12-21T05:23:36.348Z,-0.21
2018-12-21T05:26:06.121Z,-0.21
2018-12-21T05:28:35.782Z,-0.25
2018-12-21T05:31:05.155Z,-0.37
2018-12-21T05:33:34.773Z,-0.37
2018-12-21T05:36:04.441Z,-0.19
2018-12-21T05:38:34.064Z,-0.21
2018-12-21T05:41:03.695Z,-0.13
2018-12-21T05:43:33.239Z,-0.15
2018-12-21T05:46:03.009Z,-0.12
2018-12-21T05:48:32.661Z,-0.14
2018-12-21T05:51:02.256Z,-0.15
2018-12-21T05:53:31.894Z,-0.08
2018-12-21T05:56:01.435Z,-0.06
2018-12-21T05:58:31.143Z,-0.17
2018-12-21T06:01:00.694Z,-0.12
2018-12-21T06:03:30.375Z,-0.13
2018-12-21T06:05:59.867Z,-0.17
2018-12-21T06:08:29.359Z,-0.08
2018-12-21T06:10:58.981Z,-0.04
2018-12-21T06:13:28.555Z,0.05
2018-12-21T06:15:58.099Z,-0.14
2018-12-21T06:18:27.571Z,0.01
2018-12-21T06:20:57.312Z,-0.10
2018-12-21T06:23:26.787Z,0.03
2018-12-21T06:25:56.394Z,0.06
2018-12-21T06:28:26.853Z,0.06
2018-12-21T06:30:56.432Z,0.03
2018-12-21T06:33:26.131Z,0.05
2018-12-21T06:35:55.752Z,0.30
2018-12-21T06:38:25.260Z,0.29
2018-12-21T06:40:58.020Z,0.39
2018-12-21T06:43:27.646Z,0.48
2018-12-21T06:45:59.444Z,0.50
2018-12-21T06:48:29.048Z,0.50
2018-12-21T06:50:59.100Z,0.38
2018-12-21T06:53:28.596Z,0.23
2018-12-21T06:56:00.305Z,0.38
2018-12-21T06:58:29.975Z,0.34
2018-12-21T07:01:00.720Z,0.45
2018-12-21T07:03:30.498Z,0.56
2018-12-21T07:05:59.984Z,0.62
2018-12-21T07:08:30.379Z,0.69
2018-12-21T07:11:00.054Z,0.83
2018-12-21T07:13:29.674Z,0.87
2018-12-21T07:15:59.303Z,0.77
2018-12-21T07:18:28.807Z,0.68
2018-12-21T07:20:58.315Z,0.87
2018-12-21T07:23:27.773Z,0.94
2018-12-21T07:25:57.313Z,0.92
2018-12-21T07:28:26.789Z,0.98
2018-12-21T07:30:56.281Z,1.31
2018-12-21T07:33:25.893Z,1.92
2018-12-21T07:35:55.624Z,2.23
2018-12-21T07:38:25.161Z,2.31
2018-12-21T07:40:55.607Z,2.48
2018-12-21T07:43:25.333Z,2.78
2018-12-21T07:45:54.974Z,2.56
2018-12-21T07:48:24.703Z,2.30
2018-12-21T07:50:54.267Z,2.32
2018-12-21T07:53:23.902Z,2.02
2018-12-21T07:55:53.359Z,1.74
2018-12-21T07:58:23.042Z,1.65
2018-12-21T08:00:52.598Z,1.70
2018-12-21T08:03:22.184Z,1.68
2018-12-21T08:05:52.948Z,1.64
2018-12-21T08:08:22.391Z,1.75
2018-12-21T08:10:52.053Z,1.83
2018-12-21T08:13:21.736Z,1.81
2018-12-21T08:15:51.364Z,1.79
2018-12-21T08:18:20.993Z,1.71
2018-12-21T08:20:50.712Z,1.93
2018-12-21T08:23:20.400Z,2.05
2018-12-21T08:25:50.141Z,2.28
2018-12-21T08:28:19.641Z,2.41
2018-12-21T08:30:49.098Z,2.56
2018-12-21T08:33:18.782Z,2.52
2018-12-21T08:35:48.282Z,2.63
2018-12-21T08:38:18.052Z,3.01
2018-12-21T08:40:47.974Z,3.25
2018-12-21T08:43:17.412Z,3.29
2018-12-21T08:45:47.146Z,3.44
2018-12-21T08:48:16.869Z,3.55
2018-12-21T08:50:46.556Z,3.66
2018-12-21T08:53:16.103Z,3.85
2018-12-21T08:55:45.807Z,3.70
2018-12-21T08:58:15.482Z,3.54
2018-12-21T09:00:45.096Z,3.22
2018-12-21T09:03:18.481Z,3.43
2018-12-21T09:05:48.032Z,3.51
2018-12-21T09:08:17.779Z,3.24
2018-12-21T09:10:48.194Z,3.30
2018-12-21T09:13:18.666Z,3.29
2018-12-21T09:15:48.337Z,3.45
2018-12-21T09:18:17.909Z,3.40
2018-12-21T09:20:47.873Z,3.44
2018-12-21T09:23:17.550Z,3.49
2018-12-21T09:25:47.310Z,3.87
2018-12-21T09:28:16.764Z,3.99
2018-12-21T09:30:46.433Z,4.13
2018-12-21T09:33:15.937Z,4.48
2018-12-21T09:35:45.512Z,4.16
2018-12-21T09:38:15.338Z,4.25
2018-12-21T09:40:44.925Z,4.06
2018-12-21T09:43:14.632Z,4.09
2018-12-21T09:45:44.253Z,4.25
2018-12-21T09:48:13.866Z,3.98
2018-12-21T09:50:43.467Z,4.14
2018-12-21T09:53:13.097Z,4.16
2018-12-21T09:55:43.396Z,4.24
2018-12-21T09:58:13.027Z,4.24
2018-12-21T10:00:42.620Z,4.09
2018-12-21T10:03:12.309Z,4.38
2018-12-21T10:05:41.744Z,4.49
2018-12-21T10:08:11.466Z,4.74
2018-12-21T10:10:41.332Z,4.72
2018-12-21T10:13:10.836Z,4.93
2018-12-21T10:15:40.341Z,4.93
2018-12-21T10:18:10.053Z,5.03
2018-12-21T10:20:39.638Z,4.94
2018-12-21T10:23:09.510Z,5.22
2018-12-21T10:25:40.084Z,5.08
2018-12-21T10:28:09.738Z,5.44
2018-12-21T10:30:39.348Z,5.59
2018-12-21T10:33:09.070Z,5.75
2018-12-21T10:35:38.641Z,5.81
2018-12-21T10:38:08.394Z,5.51
2018-12-21T10:40:38.276Z,5.49
2018-12-21T10:43:08.401Z,5.44
2018-12-21T10:45:41.609Z,5.18
2018-12-21T10:48:09.479Z,5.49
2018-12-21T10:50:38.951Z,5.51
2018-12-21T10:53:08.715Z,5.30
2018-12-21T10:55:38.444Z,5.34
2018-12-21T10:58:08.096Z,5.51
2018-12-21T11:00:38.113Z,6.08
2018-12-21T11:03:07.772Z,6.83
2018-12-21T11:05:37.430Z,7.71
2018-12-21T11:08:07.134Z,8.26
2018-12-21T11:10:36.586Z,8.26
2018-12-21T11:13:06.494Z,8.45
2018-12-21T11:15:36.105Z,8.08
2018-12-21T11:18:05.771Z,8.81
2018-12-21T11:20:35.675Z,9.29
2018-12-21T11:23:05.436Z,10.04
2018-12-21T11:25:35.080Z,9.24
2018-12-21T11:28:04.760Z,9.07
2018-12-21T11:30:34.319Z,9.50
2018-12-21T11:33:04.071Z,10.40
2018-12-21T11:35:33.572Z,9.44
2018-12-21T11:38:03.300Z,9.69
2018-12-21T11:40:33.051Z,9.35
2018-12-21T11:43:02.538Z,9.54
2018-12-21T11:45:32.378Z,9.24
2018-12-21T11:48:02.046Z,9.91
2018-12-21T11:50:31.638Z,10.00
2018-12-21T11:53:01.184Z,9.21
2018-12-21T11:55:31.420Z,8.83
2018-12-21T11:58:01.127Z,8.45
2018-12-21T12:00:30.813Z,9.03
2018-12-21T12:03:00.357Z,9.19
2018-12-21T12:05:29.995Z,9.06
2018-12-21T12:07:59.539Z,9.36
2018-12-21T12:10:29.241Z,8.99
2018-12-21T12:12:58.750Z,8.36
2018-12-21T12:15:28.689Z,8.43
2018-12-21T12:17:58.380Z,9.01
2018-12-21T12:20:28.690Z,9.15
2018-12-21T12:22:58.209Z,9.15
2018-12-21T12:25:28.306Z,9.18
2018-12-21T12:27:58.029Z,8.82
2018-12-21T12:30:27.508Z,8.34
2018-12-21T12:32:57.089Z,7.46
2018-12-21T12:35:26.747Z,6.86
2018-12-21T12:37:56.412Z,6.94
2018-12-21T12:40:26.142Z,6.76
2018-12-21T12:42:55.874Z,6.20
2018-12-21T12:45:25.426Z,6.15
2018-12-21T12:47:55.010Z,6.13
2018-12-21T12:50:25.069Z,6.00
2018-12-21T12:52:54.751Z,5.78
2018-12-21T12:55:24.523Z,5.79
2018-12-21T12:57:54.151Z,5.72
2018-12-21T13:00:23.943Z,5.63
2018-12-21T13:02:53.848Z,5.38
2018-12-21T13:05:23.416Z,5.48
2018-12-21T13:07:53.136Z,5.56
2018-12-21T13:10:22.713Z,5.44
2018-12-21T13:12:52.310Z,5.24
2018-12-21T13:15:21.930Z,5.31
2018-12-21T13:17:52.662Z,5.31
2018-12-21T13:20:22.311Z,5.57
2018-12-21T13:22:51.853Z,5.80
2018-12-21T13:25:21.404Z,5.94
2018-12-21T13:27:51.007Z,5.87
2018-12-21T13:30:20.657Z,5.99
2018-12-21T13:32:50.243Z,5.76
2018-12-21T13:35:19.809Z,5.88
2018-12-21T13:37:49.517Z,5.81
2018-12-21T13:40:19.206Z,5.94
2018-12-21T13:42:48.793Z,6.09
2018-12-21T13:45:18.400Z,5.94
2018-12-21T13:47:47.875Z,5.72
2018-12-21T13:50:17.869Z,5.57
2018-12-21T13:52:47.446Z,5.34
2018-12-21T13:55:20.605Z,5.19
2018-12-21T13:57:48.563Z,5.01
2018-12-21T14:00:18.324Z,4.96
2018-12-21T14:02:47.918Z,5.02
2018-12-21T14:05:17.583Z,5.07
2018-12-21T14:07:47.157Z,5.10
2018-12-21T14:10:17.095Z,5.11
2018-12-21T14:12:46.691Z,5.17
2018-12-21T14:15:16.702Z,5.17
2018-12-21T14:17:46.359Z,5.30
2018-12-21T14:20:15.949Z,5.35
2018-12-21T14:22:45.620Z,5.46
2018-12-21T14:25:15.275Z,5.43
2018-12-21T14:27:44.963Z,5.20
2018-12-21T14:30:14.787Z,5.05
2018-12-21T14:32:44.324Z,4.90
2018-12-21T14:35:13.882Z,4.71
2018-12-21T14:37:43.516Z,4.63
2018-12-21T14:40:13.109Z,4.53
2018-12-21T14:42:42.753Z,4.41
2018-12-21T14:45:12.540Z,4.32
2018-12-21T14:47:42.351Z,3.61
2018-12-21T14:50:12.682Z,4.11
2018-12-21T14:52:42.178Z,3.97
2018-12-21T14:55:11.761Z,3.87
2018-12-21T14:57:41.244Z,3.74
2018-12-21T15:00:13.964Z,3.75
2018-12-21T15:02:44.178Z,3.61
2018-12-21T15:05:13.655Z,3.54
2018-12-21T15:07:43.154Z,3.28
2018-12-21T15:10:13.218Z,3.28
2018-12-21T15:12:42.770Z,3.32
2018-12-21T15:15:12.180Z,3.23
2018-12-21T15:17:41.918Z,3.06
2018-12-21T15:20:12.093Z,3.02
2018-12-21T15:22:41.882Z,2.82
2018-12-21T15:25:11.560Z,2.85
2018-12-21T15:27:41.077Z,2.68
2018-12-21T15:30:12.318Z,2.78
2018-12-21T15:32:41.917Z,2.69
2018-12-21T15:35:11.515Z,2.70
2018-12-21T15:37:41.040Z,2.68
2018-12-21T15:40:10.806Z,2.54
2018-12-21T15:42:40.397Z,2.51
2018-12-21T15:45:10.031Z,2.45
2018-12-21T15:47:39.580Z,2.48
2018-12-21T15:50:11.682Z,2.34
2018-12-21T15:52:42.098Z,2.30
2018-12-21T15:55:11.664Z,2.27
2018-12-21T15:57:41.640Z,2.28
2018-12-21T16:00:13.749Z,2.44
2018-12-21T16:02:45.196Z,2.39
2018-12-21T16:05:14.755Z,2.34
2018-12-21T16:07:44.430Z,2.41
2018-12-21T16:10:14.080Z,2.23
2018-12-21T16:12:43.701Z,2.22
2018-12-21T16:15:13.363Z,2.21
2018-12-21T16:17:43.062Z,2.14
2018-12-21T16:20:14.977Z,2.14
2018-12-21T16:22:44.557Z,1.83
2018-12-21T16:25:14.674Z,2.15
2018-12-21T16:27:44.455Z,1.99
2018-12-21T16:30:14.224Z,1.93
2018-12-21T16:32:43.746Z,1.94
2018-12-21T16:35:13.358Z,1.78
2018-12-21T16:37:43.689Z,1.78
2018-12-21T16:40:13.823Z,1.86
2018-12-21T16:42:43.650Z,1.68
2018-12-21T16:45:13.371Z,1.71
2018-12-21T16:47:42.836Z,1.66
2018-12-21T16:50:14.177Z,1.80
2018-12-21T16:52:44.293Z,1.67
2018-12-21T16:55:13.977Z,1.71
2018-12-21T16:57:45.297Z,1.60
2018-12-21T17:00:15.475Z,1.79
2018-12-21T17:02:44.990Z,1.67
2018-12-21T17:05:14.673Z,1.54
2018-12-21T17:07:44.467Z,1.47
2018-12-21T17:10:18.828Z,1.36
2018-12-21T17:12:48.765Z,1.39
2018-12-21T17:15:18.478Z,1.42
2018-12-21T17:17:48.245Z,1.20
2018-12-21T17:20:18.877Z,1.15
2018-12-21T17:22:48.765Z,1.19
2018-12-21T17:25:18.382Z,1.03
2018-12-21T17:27:48.027Z,0.99
2018-12-21T17:30:17.431Z,0.98
2018-12-21T17:32:46.803Z,0.91
2018-12-21T17:35:16.326Z,0.82
2018-12-21T17:37:45.747Z,0.84
2018-12-21T17:40:15.324Z,1.04
2018-12-21T17:42:45.058Z,0.88
2018-12-21T17:45:15.566Z,0.97
2018-12-21T17:47:45.227Z,0.81
2018-12-21T17:50:14.824Z,0.81
2018-12-21T17:52:44.351Z,0.92
2018-12-21T17:55:14.845Z,0.94
2018-12-21T17:57:44.444Z,0.96
2018-12-21T18:00:19.686Z,1.07
2018-12-21T18:02:54.475Z,1.08
2018-12-21T18:05:55.291Z,0.98
2018-12-21T18:08:24.979Z,0.78
2018-12-21T18:10:54.576Z,0.91
2018-12-21T18:13:24.753Z,0.95
2018-12-21T18:15:54.384Z,0.98
2018-12-21T18:18:25.280Z,0.93
2018-12-21T18:20:55.230Z,0.96
2018-12-21T18:23:24.986Z,0.90
2018-12-21T18:25:54.674Z,0.78
2018-12-21T18:28:28.268Z,0.70
2018-12-21T18:31:05.527Z,0.68
2018-12-21T18:33:35.335Z,0.77
2018-12-21T18:36:04.866Z,0.69
2018-12-21T18:38:34.629Z,0.59
2018-12-21T18:41:04.312Z,0.37
2018-12-21T18:43:33.842Z,0.53
2018-12-21T18:46:03.563Z,0.45
2018-12-21T18:48:33.197Z,0.31
2018-12-21T18:51:03.045Z,0.39
2018-12-21T18:53:32.760Z,0.26
2018-12-21T18:56:02.707Z,0.22
2018-12-21T18:58:32.516Z,0.43
2018-12-21T19:01:02.141Z,0.35
2018-12-21T19:03:31.853Z,0.44
2018-12-21T19:06:01.531Z,0.41
2018-12-21T19:08:31.074Z,0.47
2018-12-21T19:11:00.842Z,0.53
2018-12-21T19:13:30.476Z,0.48
2018-12-21T19:15:59.952Z,0.37
2018-12-21T19:18:30.801Z,0.32
2018-12-21T19:21:00.383Z,0.42
2018-12-21T19:23:29.933Z,0.35
2018-12-21T19:25:59.843Z,0.45
2018-12-21T19:28:29.409Z,0.38
2018-12-21T19:30:59.066Z,0.26
2018-12-21T19:33:29.495Z,0.27
2018-12-21T19:35:59.096Z,0.32
2018-12-21T19:38:28.635Z,0.35
2018-12-21T19:40:58.396Z,0.28
2018-12-21T19:43:28.944Z,0.22
2018-12-21T19:45:58.607Z,0.25
2018-12-21T19:48:28.054Z,0.28
2018-12-21T19:50:57.630Z,0.11
2018-12-21T19:53:27.299Z,0.07
2018-12-21T19:56:04.463Z,0.08
2018-12-21T19:58:34.070Z,0.02
2018-12-21T20:01:03.571Z,0.08
2018-12-21T20:03:33.298Z,0.09
2018-12-21T20:06:03.812Z,0.06
2018-12-21T20:08:33.265Z,0.04
2018-12-21T20:11:02.944Z,0.01
2018-12-21T20:13:34.447Z,0.00
2018-12-21T20:16:04.196Z,-0.04
2018-12-21T20:18:33.800Z,-0.07
2018-12-21T20:21:03.447Z,-0.07
2018-12-21T20:23:33.056Z,-0.12
2018-12-21T20:26:02.649Z,-0.04
2018-12-21T20:28:32.263Z,-0.12
2018-12-21T20:31:02.070Z,-0.15
2018-12-21T20:33:31.690Z,-0.20
2018-12-21T20:36:01.409Z,-0.21
2018-12-21T20:38:31.026Z,-0.16
2018-12-21T20:41:02.488Z,-0.18
2018-12-21T20:43:31.944Z,-0.19
2018-12-21T20:46:01.648Z,-0.12
2018-12-21T20:48:31.246Z,-0.20
2018-12-21T20:51:00.783Z,-0.11
2018-12-21T20:53:30.394Z,-0.13
2018-12-21T20:56:00.222Z,-0.22
2018-12-21T20:58:45.219Z,-0.13
2018-12-21T21:01:15.190Z,-0.18
2018-12-21T21:03:44.970Z,-0.15
2018-12-21T21:06:14.669Z,-0.15
2018-12-21T21:08:44.297Z,-0.15
2018-12-21T21:11:13.975Z,-0.17
2018-12-21T21:13:43.633Z,-0.38
2018-12-21T21:16:13.472Z,-0.32
2018-12-21T21:18:42.987Z,-0.49
2018-12-21T21:21:12.598Z,-0.64
2018-12-21T21:23:42.232Z,-0.70
2018-12-21T21:26:11.836Z,-0.79
2018-12-21T21:28:41.500Z,-0.78
2018-12-21T21:31:11.206Z,-0.88
2018-12-21T21:33:40.885Z,-0.82
2018-12-21T21:36:10.487Z,-0.93
2018-12-21T21:38:40.236Z,-0.95
2018-12-21T21:41:09.734Z,-1.04
2018-12-21T21:43:39.421Z,-1.01
2018-12-21T21:46:08.979Z,-1.03
2018-12-21T21:48:38.706Z,-1.01
2018-12-21T21:51:08.390Z,-1.03
2018-12-21T21:53:38.111Z,-1.00
2018-12-21T21:56:07.877Z,-0.91
2018-12-21T21:58:37.564Z,-1.00
2018-12-21T22:01:07.276Z,-0.86
2018-12-21T22:03:36.852Z,-0.89
2018-12-21T22:06:06.541Z,-0.88
2018-12-21T22:08:36.198Z,-0.91
2018-12-21T22:11:06.053Z,-0.86
2018-12-21T22:13:35.693Z,-0.87
2018-12-21T22:16:05.420Z,-0.88
2018-12-21T22:18:35.184Z,-0.87
2018-12-21T22:21:04.815Z,-0.85
2018-12-21T22:23:34.423Z,-0.93
2018-12-21T22:26:04.200Z,-1.10
2018-12-21T22:28:33.877Z,-0.99
2018-12-21T22:31:03.582Z,-1.20
2018-12-21T22:33:33.263Z,-2.53
2018-12-21T22:36:03.043Z,-1.05
2018-12-21T22:38:32.794Z,-1.03
2018-12-21T22:41:02.354Z,-1.04
2018-12-21T22:43:32.213Z,-1.03
2018-12-21T22:46:01.947Z,-0.92
2018-12-21T22:48:31.600Z,-0.84
2018-12-21T22:51:01.310Z,-0.79
2018-12-21T22:53:31.152Z,-0.95
2018-12-21T22:56:00.807Z,-1.01
2018-12-21T22:58:30.510Z,-1.01
2018-12-21T23:01:00.181Z,-1.11
2018-12-21T23:03:29.921Z,-1.07
2018-12-21T23:05:59.616Z,-1.09
2018-12-21T23:08:29.243Z,-1.23
2018-12-21T23:10:58.802Z,-1.14
2018-12-21T23:13:28.644Z,-1.21
2018-12-21T23:15:58.372Z,-1.23
2018-12-21T23:18:28.031Z,-1.16
2018-12-21T23:20:57.565Z,-1.27
2018-12-21T23:23:27.257Z,-1.37
2018-12-21T23:25:57.003Z,-1.34
2018-12-21T23:28:26.572Z,-1.30
2018-12-21T23:30:56.512Z,-1.44
2018-12-21T23:33:26.167Z,-1.50
2018-12-21T23:35:56.251Z,-1.57
2018-12-21T23:38:25.837Z,-1.50
2018-12-21T23:40:55.645Z,-1.50
2018-12-21T23:43:25.247Z,-1.44
2018-12-21T23:45:54.904Z,-1.61
2018-12-21T23:48:24.543Z,-1.64
2018-12-21T23:50:54.520Z,-1.64
2018-12-21T23:53:24.240Z,-1.63
2018-12-21T23:55:53.730Z,-1.62
2018-12-21T23:58:23.465Z,-1.71
